Tropical Cyclones
[Index]
Main Index Home Page Stock Weather Photos Extreme Storms Discussion Storm News and Storm Chasing Reports Tropical Cyclones / Hurricanes / Typhoons Weather Data and Links Wild Fires / Bushfires Weather Observation Techniques Weather Picture Catalogue Tornado Pictures and Reports Stock Video Footage and DVDs for sale
Season 1977-1978 Tropical Cyclone TRUDY Track Map
Season 1977-1978 Summaries: [BoM-AU] [JTWC-AU] [JTWC-SIO] [JTWC-SPAC] [JTWC-SH]
<<- Previous TC | JTWC 1977-1978 Season | Next TC ->>

click for intensity scale information  Lat/long Grid: Show Hide

 Date Labels: Show Hide

Joint Typhoon Warning Centre Cyclone Data

Name: TRUDY
Number: 968 / 7812

10 Jan 1978 00:00 UTC to 20 Jan 1978 00:00 UTC

    date/time    lat    long     hPa   cat  kts
1978-01-10 00   10.6   129.0                  25          
1978-01-10 06   10.7   126.9                  25          
1978-01-10 12   10.8   125.0                  25          
1978-01-10 18   10.9   123.4                  25          
1978-01-11 00   11.3   121.7                  25          
1978-01-11 06   11.9   119.4                  30          
1978-01-11 12   12.6   117.0                  35          
1978-01-11 18   13.2   114.7                  35          
1978-01-12 00   13.9   112.5            1     40          
1978-01-12 06   14.0   110.3            1     45          
1978-01-12 12   13.6   108.2            1     50          
1978-01-12 18   13.3   106.4            2     55          
1978-01-13 00   13.0   105.0            2     60          
1978-01-13 06   12.9   103.8            2     65          
1978-01-13 12   13.3   102.8            3     75          
1978-01-13 18   14.0   101.9            3     80          
1978-01-14 00   14.7   101.0            3     85          
1978-01-14 06   15.4   100.1            3     85          
1978-01-14 12   16.1    99.1            3     85          
1978-01-14 18   16.7    97.9            3     80          
1978-01-15 00   17.1    96.7            3     75          
1978-01-15 06   17.3    95.5            3     80          
1978-01-15 12   17.4    94.3            3     90          
1978-01-15 18   17.5    93.2            3     95          
1978-01-16 00   17.6    92.1            3     95          
1978-01-16 06   17.8    91.2            3     95          
1978-01-16 12   18.0    90.3            3     90          
1978-01-16 18   18.2    89.5            3     90          
1978-01-17 00   18.6    88.7            3     85          
1978-01-17 06   19.3    88.2            3     80          
1978-01-17 12   20.1    88.0            3     75          
1978-01-17 18   20.9    88.0            2     70          
1978-01-18 00   21.7    88.1            2     60          
1978-01-18 06   22.3    88.2            2     55          
1978-01-18 12   22.8    88.3            1     45          
1978-01-18 18   23.3    88.4            1     40          
1978-01-19 00   23.8    88.6                  35          
1978-01-19 06   24.2    88.7                  35          
1978-01-19 12   24.6    88.9                  30          
1978-01-19 18   24.9    89.0                  30          
1978-01-20 00   25.2    89.2                  25          
Winds are 1-min average.

Tropical cyclone tracks developed by Michael Bath using data from the Joint Typhoon Warning Centre Best Tracks and Google Maps.


[Australian Severe Weather index] [Copyright Notice] [Email Contacts] [Search This Site] [Privacy Policy]
Document: tropical_cyclone_trudy.htm Updated: 18 September 2016